Strona główna
METAR-TAF:

METAR-TAF

Lotnisko :

Harrisburg / Middletown, Pensylwania, Stany Zjednoczone

Szerokość geograficzna: 40-11-37N, Długość geograficzna: 076-45-48W, wysokość: 95 m

Aktualna obserwacja pogody

Raport powstał 32 minut temu, godzina 00:56 UTC
Cisza
Temperatura -3°C
Wilgotność 42%
Ciśnienie 1030 hPa
Widzialność: 16.1 km
bezchmurnie

METAR: KMDT 210056Z 00000KT 10SM CLR M03/M14 A3041 RMK AO2 SLP301 T10331144

czas: 20:28 (01:28 UTC)

Prognoza

Raport powstał 1 godzina i 42 minut temu, godzina 23:46 UTC
Prognoza ważna od 21 godzina 00 UTC do 21 godzina 24 UTC
Wiatr 5 kt od północno-północny zachód
Widzialność: 10 km
bezchmurnie

TAF: KMDT 202346Z 2100/2124 34005KT P6SM SKC

Obserwacja i prognoza pogody dla ponad 4000 lotnisk (raport METAR i TAF).

Dostępne stacje oznaczono żółtymi i czerwonymi punktami na mapie.

Najedź kursorem aby zobaczyć nazwę stacji.

Kliknij aby zobaczyć obserwacje i prognozy pogody.

Aby zmienić mapę: kliknij na zielony przycisk z czarnym krzyżykiem, aby powiększyć; na zielony przycisk z myślnikiem, aby pomniejszyć; na zielone strzałki, aby przejść do map sąsiednich.


METAR-TAF: